DTKA/TBJ METAR and TAF weather

Enter ICAO airport designator
Station Type Date Time Source
DTKA METAR 2021/09/28 05:00 UTC NOAA

DTKA 280500Z 31007KT 8000 SCT020 24/20 Q1019 NOSIG


Station Type Date Time Source
DTKA Decoded METAR 2021/09/28 05:00 UTC NOAA

Tabarka, Tunisia (DTKA) 36-57N 008-45E 21M
Sep 28, 2021 - 01:00 AM EDT / 2021.09.28 0500 UTC
Wind: from the NW (310 degrees) at 8 MPH (7 KT):0
Visibility: 4 mile(s):0
Sky conditions: partly cloudy
Temperature: 75 F (24 C)
Dew Point: 68 F (20 C)
Relative Humidity: 78%
Pressure (altimeter): 30.09 in. Hg (1019 hPa)
ob: DTKA 280500Z 31007KT 8000 SCT020 24/20 Q1019 NOSIG
cycle: 5

Station Type Date Time Source
DTKA TAF 2021/09/17 13:39 UTC NOAA

TAF DTKA 171200Z 1713/1801 29003KT 9999 SCT020 PROB30
TEMPO 1714/1717 TSRA FEW026CB

Example: see airport list